createdAt,value
2023-12-29T00:00:31.960Z,5.18
2023-12-29T00:02:59.127Z,5.89
2023-12-29T00:05:26.425Z,5.47
2023-12-29T00:07:53.486Z,5.73
2023-12-29T00:10:20.708Z,5.75
2023-12-29T00:12:47.834Z,6.07
2023-12-29T00:15:18.649Z,5.96
2023-12-29T00:17:48.410Z,5.73
2023-12-29T00:20:28.807Z,5.90
2023-12-29T00:23:00.915Z,6.03
2023-12-29T00:25:28.234Z,5.66
2023-12-29T00:27:55.368Z,5.98
2023-12-29T00:30:22.414Z,5.98
2023-12-29T00:32:52.079Z,5.88
2023-12-29T00:35:19.083Z,6.17
2023-12-29T00:37:46.232Z,6.15
2023-12-29T00:40:13.645Z,6.27
2023-12-29T00:42:40.714Z,6.32
2023-12-29T00:45:08.812Z,6.04
2023-12-29T00:47:36.105Z,6.16
2023-12-29T00:50:06.627Z,6.19
2023-12-29T00:52:33.599Z,6.23
2023-12-29T00:55:00.921Z,6.46
2023-12-29T00:57:28.039Z,6.25
2023-12-29T00:59:55.097Z,6.52
2023-12-29T01:02:22.200Z,6.50
2023-12-29T01:04:49.321Z,5.97
2023-12-29T01:07:19.018Z,6.04
2023-12-29T01:09:46.122Z,6.01
2023-12-29T01:12:13.180Z,6.15
2023-12-29T01:14:40.206Z,6.17
2023-12-29T01:17:07.215Z,7.48
2023-12-29T01:19:34.695Z,7.47
2023-12-29T01:22:01.802Z,6.15
2023-12-29T01:24:39.866Z,6.01
2023-12-29T01:27:10.108Z,6.25
2023-12-29T01:29:37.876Z,6.22
2023-12-29T01:32:06.263Z,6.39
2023-12-29T01:34:33.530Z,6.30
2023-12-29T01:37:00.921Z,6.01
2023-12-29T01:39:27.961Z,6.49
2023-12-29T01:41:59.143Z,6.19
2023-12-29T01:44:26.142Z,6.51
2023-12-29T01:46:56.142Z,6.62
2023-12-29T01:49:23.775Z,6.45
2023-12-29T01:51:54.394Z,6.01
2023-12-29T01:54:23.151Z,6.32
2023-12-29T01:56:53.147Z,6.25
2023-12-29T01:59:26.338Z,6.38
2023-12-29T02:01:55.847Z,6.49
2023-12-29T02:04:25.612Z,7.48
2023-12-29T02:06:53.134Z,7.37
2023-12-29T02:09:20.466Z,6.57
2023-12-29T02:11:48.433Z,6.30
2023-12-29T02:14:17.899Z,6.57
2023-12-29T02:17:00.003Z,6.12
2023-12-29T02:19:38.963Z,6.12
2023-12-29T02:22:06.920Z,5.90
2023-12-29T02:24:35.558Z,5.81
2023-12-29T02:27:19.472Z,5.75
2023-12-29T02:29:57.636Z,5.45
2023-12-29T02:32:27.726Z,5.37
2023-12-29T02:34:55.956Z,5.55
2023-12-29T02:37:25.820Z,5.41
2023-12-29T02:39:53.266Z,5.37
2023-12-29T02:42:23.484Z,5.04
2023-12-29T02:44:50.631Z,5.54
2023-12-29T02:47:17.786Z,5.85
2023-12-29T02:49:44.973Z,5.59
2023-12-29T02:52:12.283Z,5.35
2023-12-29T02:54:39.384Z,5.47
2023-12-29T02:57:06.403Z,6.13
2023-12-29T02:59:35.949Z,5.71
2023-12-29T03:02:03.052Z,5.39
2023-12-29T03:04:30.168Z,5.23
2023-12-29T03:06:57.341Z,5.50
2023-12-29T03:09:24.474Z,5.51
2023-12-29T03:11:51.473Z,5.49
2023-12-29T03:14:18.488Z,5.38
2023-12-29T03:16:48.009Z,5.10
2023-12-29T03:19:15.173Z,5.42
2023-12-29T03:21:42.301Z,5.27
2023-12-29T03:24:09.471Z,5.02
2023-12-29T03:26:36.624Z,4.70
2023-12-29T03:29:03.632Z,4.58
2023-12-29T03:31:30.733Z,4.34
2023-12-29T03:34:00.437Z,4.35
2023-12-29T03:36:27.549Z,4.50
2023-12-29T03:38:54.556Z,4.38
2023-12-29T03:41:21.557Z,4.69
2023-12-29T03:43:48.540Z,4.91
2023-12-29T03:46:18.911Z,5.54
2023-12-29T03:48:46.433Z,5.79
2023-12-29T03:51:17.242Z,6.02
2023-12-29T03:53:44.277Z,5.87
2023-12-29T03:56:16.829Z,6.03
2023-12-29T03:58:44.105Z,5.77
2023-12-29T04:01:11.745Z,5.93
2023-12-29T04:03:39.081Z,5.65
2023-12-29T04:06:06.884Z,5.72
2023-12-29T04:08:38.067Z,6.05
2023-12-29T04:11:06.265Z,5.81
2023-12-29T04:13:33.580Z,5.79
2023-12-29T04:16:01.039Z,6.21
2023-12-29T04:18:30.548Z,5.72
2023-12-29T04:20:57.757Z,5.27
2023-12-29T04:23:24.775Z,5.75
2023-12-29T04:25:54.391Z,5.54
2023-12-29T04:28:21.445Z,5.48
2023-12-29T04:30:48.575Z,5.49
2023-12-29T04:33:15.757Z,5.18
2023-12-29T04:35:42.727Z,5.18
2023-12-29T04:38:09.793Z,5.09
2023-12-29T04:40:37.710Z,5.43
2023-12-29T04:43:07.497Z,5.33
2023-12-29T04:45:34.623Z,5.14
2023-12-29T04:48:01.861Z,5.28
2023-12-29T04:50:29.071Z,5.46
2023-12-29T04:52:56.137Z,5.32
2023-12-29T04:55:23.182Z,5.59
2023-12-29T04:57:50.262Z,5.48
2023-12-29T05:00:20.276Z,5.47
2023-12-29T05:02:47.285Z,5.65
2023-12-29T05:05:14.485Z,5.84
2023-12-29T05:07:42.295Z,5.42
2023-12-29T05:10:10.069Z,5.55
2023-12-29T05:12:37.158Z,5.77
2023-12-29T05:15:05.537Z,5.72
2023-12-29T05:17:35.170Z,5.37
2023-12-29T05:20:02.707Z,5.61
2023-12-29T05:22:29.719Z,5.37
2023-12-29T05:24:56.718Z,5.84
2023-12-29T05:27:23.738Z,5.55
2023-12-29T05:29:50.845Z,5.29
2023-12-29T05:32:17.926Z,5.51
2023-12-29T05:34:47.558Z,5.10
2023-12-29T05:37:14.784Z,5.38
2023-12-29T05:39:43.045Z,5.37
2023-12-29T05:42:10.160Z,5.52
2023-12-29T05:44:37.481Z,5.31
2023-12-29T05:47:05.140Z,5.23
2023-12-29T05:49:32.300Z,5.41
2023-12-29T05:52:02.054Z,5.10
2023-12-29T05:54:29.079Z,5.39
2023-12-29T05:56:56.193Z,5.13
2023-12-29T05:59:23.260Z,5.47
2023-12-29T06:01:50.411Z,5.05
2023-12-29T06:04:17.603Z,5.24
2023-12-29T06:06:44.756Z,4.93
2023-12-29T06:09:14.432Z,5.02
2023-12-29T06:11:41.635Z,5.30
2023-12-29T06:14:08.680Z,5.20
2023-12-29T06:16:35.731Z,5.16
2023-12-29T06:19:04.878Z,5.55
2023-12-29T06:21:31.960Z,4.83
2023-12-29T06:23:58.993Z,5.26
2023-12-29T06:26:28.760Z,5.43
2023-12-29T06:28:55.773Z,5.24
2023-12-29T06:31:23.020Z,5.26
2023-12-29T06:33:50.230Z,5.34
2023-12-29T06:36:17.482Z,5.34
2023-12-29T06:38:44.533Z,5.43
2023-12-29T06:41:11.646Z,5.57
2023-12-29T06:43:41.339Z,5.27
2023-12-29T06:46:08.389Z,5.63
2023-12-29T06:48:35.748Z,5.57
2023-12-29T06:51:02.981Z,5.56
2023-12-29T06:53:30.002Z,5.62
2023-12-29T06:55:57.070Z,5.38
2023-12-29T06:58:24.175Z,5.66
2023-12-29T07:00:53.931Z,5.51
2023-12-29T07:03:21.054Z,5.57
2023-12-29T07:05:48.154Z,5.21
2023-12-29T07:08:15.204Z,5.32
2023-12-29T07:10:42.422Z,5.53
2023-12-29T07:13:09.882Z,5.16
2023-12-29T07:15:37.113Z,5.26
2023-12-29T07:18:07.457Z,5.12
2023-12-29T07:20:35.069Z,5.13
2023-12-29T07:23:02.219Z,6.21
2023-12-29T07:25:29.424Z,5.54
2023-12-29T07:27:56.536Z,4.99
2023-12-29T07:30:23.663Z,4.86
2023-12-29T07:32:50.828Z,4.84
2023-12-29T07:35:20.662Z,5.06
2023-12-29T07:37:48.187Z,5.17
2023-12-29T07:40:15.831Z,4.96
2023-12-29T07:42:43.477Z,5.03
2023-12-29T07:45:10.663Z,5.09
2023-12-29T07:47:38.030Z,5.16
2023-12-29T07:50:05.866Z,5.37
2023-12-29T07:52:35.579Z,5.36
2023-12-29T07:55:02.624Z,5.14
2023-12-29T07:57:29.718Z,5.56
2023-12-29T07:59:56.786Z,5.56
2023-12-29T08:02:26.040Z,5.45
2023-12-29T08:04:53.134Z,5.03
2023-12-29T08:07:20.257Z,5.15
2023-12-29T08:09:49.942Z,5.34
2023-12-29T08:12:16.956Z,5.28
2023-12-29T08:14:43.983Z,5.35
2023-12-29T08:17:11.537Z,5.16
2023-12-29T08:19:38.660Z,5.00
2023-12-29T08:22:06.415Z,4.78
2023-12-29T08:24:33.403Z,5.08
2023-12-29T08:27:04.088Z,5.32
2023-12-29T08:29:31.231Z,5.20
2023-12-29T08:31:58.244Z,5.86
2023-12-29T08:34:28.280Z,5.49
2023-12-29T08:36:55.671Z,5.22
2023-12-29T08:39:22.670Z,5.27
2023-12-29T08:41:49.808Z,5.09
2023-12-29T08:44:19.421Z,4.62
2023-12-29T08:46:46.405Z,4.63
2023-12-29T08:49:13.508Z,5.17
2023-12-29T08:51:40.546Z,4.92
2023-12-29T08:54:07.615Z,4.84
2023-12-29T08:56:34.685Z,4.66
2023-12-29T08:59:01.718Z,6.55
2023-12-29T09:01:31.391Z,5.70
2023-12-29T09:03:58.530Z,5.21
2023-12-29T09:06:25.611Z,4.70
2023-12-29T09:08:52.733Z,4.66
2023-12-29T09:11:19.750Z,4.45
2023-12-29T09:13:46.784Z,4.30
2023-12-29T09:16:14.406Z,5.05
2023-12-29T09:18:44.173Z,4.92
2023-12-29T09:21:11.274Z,4.51
2023-12-29T09:23:38.446Z,5.29
2023-12-29T09:26:05.927Z,4.99
2023-12-29T09:28:34.724Z,4.19
2023-12-29T09:31:01.836Z,4.04
2023-12-29T09:33:29.219Z,3.94
2023-12-29T09:35:58.846Z,3.98
2023-12-29T09:38:25.892Z,3.72
2023-12-29T09:40:54.338Z,4.03
2023-12-29T09:43:21.644Z,3.71
2023-12-29T09:45:53.234Z,3.78
2023-12-29T09:48:22.967Z,3.94
2023-12-29T09:50:52.322Z,4.12
2023-12-29T09:53:22.734Z,3.91
2023-12-29T09:55:50.184Z,3.40
2023-12-29T09:58:20.319Z,3.33
2023-12-29T10:00:50.431Z,3.41
2023-12-29T10:03:17.590Z,3.30
2023-12-29T10:05:51.811Z,3.02
2023-12-29T10:08:24.689Z,2.98
2023-12-29T10:10:54.404Z,2.81
2023-12-29T10:13:24.090Z,3.02
2023-12-29T10:16:05.291Z,2.85
2023-12-29T10:18:38.956Z,2.73
2023-12-29T10:21:22.405Z,2.58
2023-12-29T10:24:02.455Z,2.55
2023-12-29T10:26:29.680Z,2.54
2023-12-29T10:28:58.498Z,2.45
2023-12-29T10:31:25.925Z,2.59
2023-12-29T10:33:53.196Z,2.67
2023-12-29T10:36:20.287Z,2.94
2023-12-29T10:38:47.271Z,2.72
2023-12-29T10:41:18.227Z,2.59
2023-12-29T10:43:46.591Z,2.74
2023-12-29T10:46:13.592Z,2.58
2023-12-29T10:48:41.264Z,2.70
2023-12-29T10:51:08.430Z,2.79
2023-12-29T10:53:40.551Z,2.47
2023-12-29T10:56:20.866Z,2.88
2023-12-29T10:58:58.471Z,2.43
2023-12-29T11:01:25.744Z,2.46
2023-12-29T11:03:59.373Z,2.36
2023-12-29T11:06:27.726Z,2.52
2023-12-29T11:08:54.756Z,2.30
2023-12-29T11:11:24.782Z,2.27
2023-12-29T11:13:52.094Z,2.48
2023-12-29T11:16:22.933Z,2.42
2023-12-29T11:18:51.608Z,2.24
2023-12-29T11:21:22.832Z,2.46
2023-12-29T11:23:49.970Z,2.25
2023-12-29T11:26:17.352Z,2.11
2023-12-29T11:28:48.319Z,2.23
2023-12-29T11:31:17.320Z,2.20
2023-12-29T11:33:51.724Z,2.42
2023-12-29T11:36:31.381Z,2.49
2023-12-29T11:39:12.136Z,2.38
2023-12-29T11:41:45.673Z,2.19
2023-12-29T11:44:26.380Z,2.01
2023-12-29T11:46:53.432Z,2.11
2023-12-29T11:49:20.888Z,2.02
2023-12-29T11:51:48.838Z,2.27
2023-12-29T11:54:23.952Z,2.14
2023-12-29T11:56:51.817Z,2.71
2023-12-29T11:59:23.813Z,2.21
2023-12-29T12:01:52.424Z,2.29
2023-12-29T12:04:38.080Z,2.23
2023-12-29T12:07:05.766Z,2.13
2023-12-29T12:09:32.802Z,2.26
2023-12-29T12:11:59.909Z,3.32
2023-12-29T12:14:48.624Z,3.39
2023-12-29T12:17:32.651Z,2.66
2023-12-29T12:20:03.132Z,2.35
2023-12-29T12:22:35.511Z,2.71
2023-12-29T12:25:05.244Z,2.53
2023-12-29T12:27:32.934Z,2.89
2023-12-29T12:30:03.904Z,2.65
2023-12-29T12:32:31.603Z,2.72
2023-12-29T12:34:58.802Z,2.82
2023-12-29T12:37:28.230Z,2.69
2023-12-29T12:39:56.104Z,2.72
2023-12-29T12:42:24.509Z,2.66
2023-12-29T12:45:12.089Z,2.52
2023-12-29T12:47:45.876Z,2.61
2023-12-29T12:50:14.450Z,2.70
2023-12-29T12:52:41.914Z,2.88
2023-12-29T12:55:10.732Z,2.57
2023-12-29T12:57:38.928Z,3.13
2023-12-29T13:00:10.359Z,3.83
2023-12-29T13:02:38.798Z,3.10
2023-12-29T13:05:07.358Z,2.65
2023-12-29T13:07:35.381Z,2.81
2023-12-29T13:10:04.193Z,2.11
2023-12-29T13:12:31.286Z,2.28
2023-12-29T13:15:09.811Z,2.91
2023-12-29T13:17:36.852Z,2.51
2023-12-29T13:20:04.501Z,2.61
2023-12-29T13:22:31.705Z,2.55
2023-12-29T13:24:59.080Z,2.30
2023-12-29T13:27:26.184Z,2.43
2023-12-29T13:29:54.018Z,2.41
2023-12-29T13:32:27.029Z,2.64
2023-12-29T13:35:08.051Z,3.83
2023-12-29T13:37:43.569Z,4.11
2023-12-29T13:40:18.999Z,2.40
2023-12-29T13:42:52.187Z,2.45
2023-12-29T13:45:21.045Z,2.40
2023-12-29T13:47:52.001Z,2.52
2023-12-29T13:50:19.400Z,2.44
2023-12-29T13:52:46.904Z,2.34
2023-12-29T13:55:21.584Z,2.49
2023-12-29T13:57:48.695Z,2.22
2023-12-29T14:00:16.834Z,2.15
2023-12-29T14:02:47.867Z,2.29
2023-12-29T14:05:28.759Z,4.13
2023-12-29T14:08:05.164Z,3.30
2023-12-29T14:10:33.262Z,2.07
2023-12-29T14:13:08.831Z,2.00
2023-12-29T14:15:37.023Z,2.23
2023-12-29T14:18:17.769Z,2.65
2023-12-29T14:20:47.598Z,2.06
2023-12-29T14:23:14.995Z,2.15
2023-12-29T14:25:42.110Z,1.99
2023-12-29T14:28:17.145Z,2.01
2023-12-29T14:30:45.061Z,2.21
2023-12-29T14:33:12.502Z,2.10
2023-12-29T14:35:39.810Z,1.90
2023-12-29T14:38:09.570Z,1.98
2023-12-29T14:40:36.676Z,2.26
2023-12-29T14:43:04.086Z,4.65
2023-12-29T14:45:31.452Z,2.18
2023-12-29T14:48:00.836Z,2.11
2023-12-29T14:50:28.381Z,2.21
2023-12-29T14:52:55.472Z,2.00
2023-12-29T14:55:25.099Z,2.04
2023-12-29T14:57:52.262Z,1.88
2023-12-29T15:00:19.754Z,2.00
2023-12-29T15:02:46.800Z,1.87
2023-12-29T15:05:13.905Z,2.14
2023-12-29T15:07:41.042Z,2.05
2023-12-29T15:10:09.210Z,2.27
2023-12-29T15:12:38.942Z,2.17
2023-12-29T15:15:06.866Z,2.13
2023-12-29T15:17:33.943Z,2.12
2023-12-29T15:20:00.964Z,2.38
2023-12-29T15:22:27.910Z,2.30
2023-12-29T15:24:54.998Z,4.21
2023-12-29T15:27:22.023Z,2.99
2023-12-29T15:29:51.612Z,2.25
2023-12-29T15:32:18.628Z,2.36
2023-12-29T15:34:45.716Z,2.58
2023-12-29T15:37:13.209Z,2.20
2023-12-29T15:39:42.910Z,2.05
2023-12-29T15:42:09.975Z,1.90
2023-12-29T15:44:37.040Z,2.07
2023-12-29T15:47:06.737Z,2.25
2023-12-29T15:49:33.870Z,2.96
2023-12-29T15:52:01.302Z,2.85
2023-12-29T15:54:28.333Z,2.56
2023-12-29T15:56:55.374Z,2.07
2023-12-29T15:59:22.368Z,2.15
2023-12-29T16:01:49.418Z,1.99
2023-12-29T16:04:19.212Z,2.26
2023-12-29T16:06:46.304Z,2.00
2023-12-29T16:09:13.270Z,1.94
2023-12-29T16:11:40.290Z,2.21
2023-12-29T16:14:07.484Z,2.17
2023-12-29T16:16:34.701Z,2.27
2023-12-29T16:19:02.091Z,2.23
2023-12-29T16:24:03.910Z,2.27
2023-12-29T16:26:38.371Z,2.50
2023-12-29T16:29:09.841Z,2.40
2023-12-29T16:31:36.988Z,2.65
2023-12-29T16:34:04.566Z,2.37
2023-12-29T16:36:34.270Z,2.29
2023-12-29T16:39:01.256Z,2.45
2023-12-29T16:41:28.261Z,2.34
2023-12-29T16:43:55.275Z,3.41
2023-12-29T16:46:22.410Z,3.60
2023-12-29T16:48:49.552Z,2.64
2023-12-29T16:51:16.698Z,2.54
2023-12-29T16:53:46.297Z,2.71
2023-12-29T16:56:13.355Z,2.54
2023-12-29T16:58:40.435Z,2.54
2023-12-29T17:01:07.440Z,2.76
2023-12-29T17:03:34.529Z,3.02
2023-12-29T17:06:01.557Z,2.63
2023-12-29T17:08:28.604Z,2.72
2023-12-29T17:10:58.208Z,2.88
2023-12-29T17:13:25.274Z,2.72
2023-12-29T17:15:52.408Z,2.79
2023-12-29T17:18:19.483Z,3.81
2023-12-29T17:20:46.485Z,2.60
2023-12-29T17:23:13.526Z,2.69
2023-12-29T17:25:46.643Z,2.87
2023-12-29T17:28:20.381Z,2.99
2023-12-29T17:30:47.496Z,2.75
2023-12-29T17:33:14.556Z,5.33
2023-12-29T17:35:41.635Z,4.46
2023-12-29T17:38:08.637Z,2.97
2023-12-29T17:40:35.636Z,2.91
2023-12-29T17:43:02.910Z,2.66
2023-12-29T17:45:32.727Z,3.75
2023-12-29T17:47:59.807Z,3.33
2023-12-29T17:50:26.887Z,3.22
2023-12-29T17:52:53.940Z,2.77
2023-12-29T17:55:21.077Z,2.79
2023-12-29T17:57:48.201Z,2.60
2023-12-29T18:00:16.386Z,2.93
2023-12-29T18:02:46.018Z,2.61
2023-12-29T18:05:13.081Z,2.78
2023-12-29T18:07:40.205Z,2.97
2023-12-29T18:10:07.879Z,3.00
2023-12-29T18:12:34.935Z,2.87
2023-12-29T18:15:01.985Z,3.50
2023-12-29T18:17:29.089Z,3.00
2023-12-29T18:19:58.762Z,3.15
2023-12-29T18:22:25.940Z,3.00
2023-12-29T18:24:53.072Z,3.11
2023-12-29T18:27:20.128Z,3.23
2023-12-29T18:29:47.177Z,3.43
2023-12-29T18:32:20.023Z,2.93
2023-12-29T18:34:49.654Z,3.49
2023-12-29T18:37:19.602Z,3.15
2023-12-29T18:39:46.976Z,3.06
2023-12-29T18:42:14.034Z,3.02
2023-12-29T18:44:41.171Z,3.68
2023-12-29T18:47:08.231Z,3.28
2023-12-29T18:49:35.761Z,3.74
2023-12-29T18:52:02.971Z,3.47
2023-12-29T18:54:32.663Z,2.88
2023-12-29T18:57:00.000Z,2.71
2023-12-29T18:59:27.656Z,3.21
2023-12-29T19:01:56.286Z,3.32
2023-12-29T19:04:23.482Z,4.03
2023-12-29T19:06:50.552Z,4.24
2023-12-29T19:09:17.581Z,3.53
2023-12-29T19:11:47.386Z,3.72
2023-12-29T19:14:14.395Z,4.27
2023-12-29T19:16:41.508Z,4.22
2023-12-29T19:19:08.768Z,3.95
2023-12-29T19:21:40.325Z,3.89
2023-12-29T19:24:07.822Z,3.40
2023-12-29T19:26:34.858Z,3.35
2023-12-29T19:29:04.558Z,4.10
2023-12-29T19:31:31.634Z,3.79
2023-12-29T19:33:58.709Z,3.43
2023-12-29T19:36:25.742Z,3.09
2023-12-29T19:38:52.764Z,3.53
2023-12-29T19:41:21.124Z,2.78
2023-12-29T19:43:48.882Z,3.62
2023-12-29T19:46:20.464Z,3.15
2023-12-29T19:48:49.287Z,2.66
2023-12-29T19:51:19.148Z,2.64
2023-12-29T19:53:46.184Z,2.20
2023-12-29T19:56:13.301Z,2.72
2023-12-29T19:58:40.330Z,2.92
2023-12-29T20:01:07.757Z,2.70
2023-12-29T20:03:37.663Z,2.53
2023-12-29T20:06:05.116Z,2.45
2023-12-29T20:08:32.198Z,2.49
2023-12-29T20:11:01.197Z,2.64
2023-12-29T20:13:28.386Z,2.73
2023-12-29T20:15:55.488Z,2.98
2023-12-29T20:18:22.599Z,3.37
2023-12-29T20:20:52.279Z,2.59
2023-12-29T20:23:19.285Z,2.22
2023-12-29T20:25:46.242Z,2.24
2023-12-29T20:28:13.763Z,2.60
2023-12-29T20:30:40.851Z,2.36
2023-12-29T20:33:07.911Z,2.83
2023-12-29T20:35:34.931Z,2.83
2023-12-29T20:38:04.654Z,2.81
2023-12-29T20:40:31.759Z,2.60
2023-12-29T20:42:58.878Z,2.60
2023-12-29T20:45:25.903Z,2.60
2023-12-29T20:47:52.997Z,2.53
2023-12-29T20:50:20.087Z,2.53
2023-12-29T20:52:47.141Z,2.79
2023-12-29T20:55:16.770Z,3.63
2023-12-29T20:57:43.831Z,3.24
2023-12-29T21:00:11.758Z,2.78
2023-12-29T21:02:38.739Z,2.71
2023-12-29T21:05:06.712Z,2.90
2023-12-29T21:07:33.810Z,2.73
2023-12-29T21:10:00.910Z,2.78
2023-12-29T21:12:30.511Z,3.24
2023-12-29T21:14:57.496Z,3.20
2023-12-29T21:17:24.564Z,3.12
2023-12-29T21:19:53.764Z,3.03
2023-12-29T21:22:21.032Z,2.91
2023-12-29T21:24:48.133Z,3.07
2023-12-29T21:27:15.206Z,3.54
2023-12-29T21:29:44.772Z,2.95
2023-12-29T21:32:12.010Z,3.00
2023-12-29T21:34:39.453Z,2.54
2023-12-29T21:37:06.608Z,2.46
2023-12-29T21:39:33.636Z,2.31
2023-12-29T21:42:00.810Z,2.38
2023-12-29T21:44:27.877Z,2.76
2023-12-29T21:46:57.522Z,2.71
2023-12-29T21:49:24.578Z,2.72
2023-12-29T21:51:51.915Z,2.32
2023-12-29T21:54:18.999Z,2.51
2023-12-29T21:56:46.110Z,2.54
2023-12-29T21:59:13.239Z,2.81
2023-12-29T22:01:40.648Z,2.81
2023-12-29T22:04:10.945Z,2.81
2023-12-29T22:06:40.364Z,2.70
2023-12-29T22:09:08.041Z,2.72
2023-12-29T22:11:35.686Z,2.87
2023-12-29T22:14:04.020Z,2.90
2023-12-29T22:16:31.152Z,2.90
2023-12-29T22:18:58.798Z,2.74
2023-12-29T22:21:28.483Z,3.08
2023-12-29T22:23:55.456Z,2.69
2023-12-29T22:26:22.480Z,2.61
2023-12-29T22:28:50.904Z,2.80
2023-12-29T22:31:19.158Z,2.81
2023-12-29T22:33:46.707Z,2.79
2023-12-29T22:36:15.864Z,3.00
2023-12-29T22:38:45.997Z,2.81
2023-12-29T22:41:15.617Z,2.86
2023-12-29T22:43:42.627Z,3.48
2023-12-29T22:46:09.995Z,4.03
2023-12-29T22:48:37.063Z,3.10
2023-12-29T22:51:04.599Z,2.93
2023-12-29T22:53:31.911Z,2.77
2023-12-29T22:56:02.056Z,3.08
2023-12-29T22:58:29.670Z,3.11
2023-12-29T23:00:56.849Z,3.38
2023-12-29T23:03:23.926Z,3.32
2023-12-29T23:05:51.173Z,3.59
2023-12-29T23:08:18.622Z,3.94
2023-12-29T23:10:45.815Z,2.98
2023-12-29T23:13:15.574Z,3.21
2023-12-29T23:15:43.116Z,3.33
2023-12-29T23:18:10.199Z,3.07
2023-12-29T23:20:37.439Z,3.57
2023-12-29T23:23:04.837Z,3.56
2023-12-29T23:25:32.097Z,3.11
2023-12-29T23:27:59.199Z,3.21
2023-12-29T23:30:28.814Z,3.47
2023-12-29T23:32:55.901Z,3.46
2023-12-29T23:35:24.765Z,3.22
2023-12-29T23:37:52.850Z,3.20
2023-12-29T23:40:20.211Z,3.23
2023-12-29T23:42:47.383Z,3.05
2023-12-29T23:45:14.467Z,3.20
2023-12-29T23:47:44.152Z,2.88
2023-12-29T23:50:11.436Z,2.67
2023-12-29T23:52:38.421Z,2.98
2023-12-29T23:55:06.856Z,2.97
2023-12-29T23:57:33.899Z,2.88
